sensor_id;sensor_type;location;lat;lon;timestamp;pressure;altitude;pressure_sealevel;temperature;humidity
56681;BME280;42558;52.388;13.390;2023-03-01T00:02:05;102701.08;;;-4.55;100.00
56681;BME280;42558;52.388;13.390;2023-03-01T00:04:35;102698.81;;;-4.57;100.00
56681;BME280;42558;52.388;13.390;2023-03-01T00:07:05;102697.09;;;-4.57;100.00
56681;BME280;42558;52.388;13.390;2023-03-01T00:09:36;102696.09;;;-4.57;100.00
56681;BME280;42558;52.388;13.390;2023-03-01T00:12:08;102691.39;;;-4.58;100.00
56681;BME280;42558;52.388;13.390;2023-03-01T00:14:41;102690.61;;;-4.52;100.00
56681;BME280;42558;52.388;13.390;2023-03-01T00:17:09;102684.61;;;-4.57;100.00
56681;BME280;42558;52.388;13.390;2023-03-01T00:19:37;102680.78;;;-4.67;100.00
56681;BME280;42558;52.388;13.390;2023-03-01T00:22:05;102678.94;;;-4.69;100.00
56681;BME280;42558;52.388;13.390;2023-03-01T00:24:34;102677.74;;;-4.70;100.00
56681;BME280;42558;52.388;13.390;2023-03-01T00:27:02;102676.70;;;-4.74;100.00
56681;BME280;42558;52.388;13.390;2023-03-01T00:29:31;102675.65;;;-4.76;100.00
56681;BME280;42558;52.388;13.390;2023-03-01T00:31:59;102676.30;;;-4.79;100.00
56681;BME280;42558;52.388;13.390;2023-03-01T00:34:28;102672.45;;;-4.83;100.00
56681;BME280;42558;52.388;13.390;2023-03-01T00:36:56;102666.58;;;-4.83;100.00
56681;BME280;42558;52.388;13.390;2023-03-01T00:39:33;102666.69;;;-4.87;100.00
56681;BME280;42558;52.388;13.390;2023-03-01T00:42:03;102669.31;;;-4.90;100.00
56681;BME280;42558;52.388;13.390;2023-03-01T00:44:34;102663.09;;;-4.94;100.00
56681;BME280;42558;52.388;13.390;2023-03-01T00:47:04;102662.48;;;-4.96;100.00
56681;BME280;42558;52.388;13.390;2023-03-01T00:49:34;102665.54;;;-4.96;100.00
56681;BME280;42558;52.388;13.390;2023-03-01T00:52:04;102664.84;;;-4.98;100.00
56681;BME280;42558;52.388;13.390;2023-03-01T00:54:34;102662.73;;;-4.97;100.00
56681;BME280;42558;52.388;13.390;2023-03-01T00:57:04;102661.32;;;-4.99;100.00
56681;BME280;42558;52.388;13.390;2023-03-01T00:59:33;102657.14;;;-5.03;100.00
56681;BME280;42558;52.388;13.390;2023-03-01T01:02:03;102652.85;;;-5.03;100.00
56681;BME280;42558;52.388;13.390;2023-03-01T01:04:33;102651.55;;;-4.99;100.00
56681;BME280;42558;52.388;13.390;2023-03-01T01:07:03;102651.89;;;-5.01;100.00
56681;BME280;42558;52.388;13.390;2023-03-01T01:09:33;102659.94;;;-5.05;100.00
56681;BME280;42558;52.388;13.390;2023-03-01T01:12:03;102656.24;;;-5.11;100.00
56681;BME280;42558;52.388;13.390;2023-03-01T01:14:35;102655.01;;;-5.11;100.00
56681;BME280;42558;52.388;13.390;2023-03-01T01:17:05;102643.54;;;-5.06;100.00
56681;BME280;42558;52.388;13.390;2023-03-01T01:19:35;102643.98;;;-5.04;100.00
56681;BME280;42558;52.388;13.390;2023-03-01T01:22:05;102644.92;;;-5.08;100.00
56681;BME280;42558;52.388;13.390;2023-03-01T01:24:35;102643.59;;;-5.15;100.00
56681;BME280;42558;52.388;13.390;2023-03-01T01:27:05;102638.42;;;-5.22;100.00
56681;BME280;42558;52.388;13.390;2023-03-01T01:29:36;102636.41;;;-5.27;100.00
56681;BME280;42558;52.388;13.390;2023-03-01T01:32:06;102639.08;;;-5.25;100.00
56681;BME280;42558;52.388;13.390;2023-03-01T01:34:36;102637.52;;;-5.23;100.00
56681;BME280;42558;52.388;13.390;2023-03-01T01:37:06;102640.30;;;-5.21;100.00
56681;BME280;42558;52.388;13.390;2023-03-01T01:39:36;102639.58;;;-5.22;100.00
56681;BME280;42558;52.388;13.390;2023-03-01T01:42:08;102632.39;;;-5.25;100.00
56681;BME280;42558;52.388;13.390;2023-03-01T01:44:46;102629.42;;;-5.23;100.00
56681;BME280;42558;52.388;13.390;2023-03-01T01:47:20;102627.89;;;-5.23;100.00
56681;BME280;42558;52.388;13.390;2023-03-01T01:49:56;102628.77;;;-5.23;100.00
56681;BME280;42558;52.388;13.390;2023-03-01T01:52:34;102634.64;;;-5.21;100.00
56681;BME280;42558;52.388;13.390;2023-03-01T01:55:37;102636.83;;;-5.20;100.00
56681;BME280;42558;52.388;13.390;2023-03-01T01:58:14;102637.79;;;-5.24;100.00
56681;BME280;42558;52.388;13.390;2023-03-01T02:00:45;102635.65;;;-5.26;100.00
56681;BME280;42558;52.388;13.390;2023-03-01T02:03:31;102633.80;;;-5.31;100.00
56681;BME280;42558;52.388;13.390;2023-03-01T02:06:31;102636.84;;;-5.36;100.00
56681;BME280;42558;52.388;13.390;2023-03-01T02:09:14;102633.68;;;-5.41;100.00
56681;BME280;42558;52.388;13.390;2023-03-01T02:11:48;102633.77;;;-5.43;100.00
56681;BME280;42558;52.388;13.390;2023-03-01T02:14:17;102632.44;;;-5.44;100.00
56681;BME280;42558;52.388;13.390;2023-03-01T02:16:46;102628.39;;;-5.44;100.00
56681;BME280;42558;52.388;13.390;2023-03-01T02:22:27;102627.70;;;-5.47;100.00
56681;BME280;42558;52.388;13.390;2023-03-01T02:28:22;102624.79;;;-5.52;100.00
56681;BME280;42558;52.388;13.390;2023-03-01T02:30:53;102625.52;;;-5.55;100.00
56681;BME280;42558;52.388;13.390;2023-03-01T02:33:44;102624.34;;;-5.56;100.00
56681;BME280;42558;52.388;13.390;2023-03-01T02:36:20;102624.98;;;-5.58;100.00
56681;BME280;42558;52.388;13.390;2023-03-01T02:38:57;102623.58;;;-5.55;100.00
56681;BME280;42558;52.388;13.390;2023-03-01T02:41:30;102625.34;;;-5.61;100.00
56681;BME280;42558;52.388;13.390;2023-03-01T02:44:03;102629.14;;;-5.67;100.00
56681;BME280;42558;52.388;13.390;2023-03-01T02:46:32;102634.91;;;-5.71;100.00
56681;BME280;42558;52.388;13.390;2023-03-01T02:49:29;102640.52;;;-5.73;100.00
56681;BME280;42558;52.388;13.390;2023-03-01T02:52:13;102639.11;;;-5.73;100.00
56681;BME280;42558;52.388;13.390;2023-03-01T02:55:05;102635.77;;;-5.74;100.00
56681;BME280;42558;52.388;13.390;2023-03-01T02:57:39;102632.64;;;-5.78;100.00
56681;BME280;42558;52.388;13.390;2023-03-01T03:00:19;102632.65;;;-5.78;100.00
56681;BME280;42558;52.388;13.390;2023-03-01T03:02:54;102633.36;;;-5.76;100.00
56681;BME280;42558;52.388;13.390;2023-03-01T03:05:28;102627.39;;;-5.77;100.00
56681;BME280;42558;52.388;13.390;2023-03-01T03:08:02;102619.63;;;-5.81;100.00
56681;BME280;42558;52.388;13.390;2023-03-01T03:10:38;102625.38;;;-5.80;100.00
56681;BME280;42558;52.388;13.390;2023-03-01T03:13:12;102616.98;;;-5.79;100.00
56681;BME280;42558;52.388;13.390;2023-03-01T03:15:43;102619.13;;;-5.82;100.00
56681;BME280;42558;52.388;13.390;2023-03-01T03:18:16;102618.14;;;-5.82;100.00
56681;BME280;42558;52.388;13.390;2023-03-01T03:20:48;102616.20;;;-5.84;100.00
56681;BME280;42558;52.388;13.390;2023-03-01T03:23:23;102619.10;;;-5.84;100.00
56681;BME280;42558;52.388;13.390;2023-03-01T03:25:53;102616.23;;;-5.87;100.00
56681;BME280;42558;52.388;13.390;2023-03-01T03:28:21;102614.44;;;-5.91;100.00
56681;BME280;42558;52.388;13.390;2023-03-01T03:30:50;102612.48;;;-5.95;100.00
56681;BME280;42558;52.388;13.390;2023-03-01T03:33:18;102610.84;;;-5.97;100.00
56681;BME280;42558;52.388;13.390;2023-03-01T03:35:49;102609.83;;;-6.00;100.00
56681;BME280;42558;52.388;13.390;2023-03-01T03:38:20;102602.35;;;-6.01;100.00
56681;BME280;42558;52.388;13.390;2023-03-01T03:41:02;102595.52;;;-6.02;100.00
56681;BME280;42558;52.388;13.390;2023-03-01T03:43:36;102593.67;;;-6.04;100.00
56681;BME280;42558;52.388;13.390;2023-03-01T03:46:07;102593.10;;;-6.08;100.00
56681;BME280;42558;52.388;13.390;2023-03-01T03:48:41;102592.99;;;-6.09;100.00
56681;BME280;42558;52.388;13.390;2023-03-01T03:51:14;102591.72;;;-6.09;100.00
56681;BME280;42558;52.388;13.390;2023-03-01T03:53:45;102592.47;;;-6.07;100.00
56681;BME280;42558;52.388;13.390;2023-03-01T03:56:15;102588.41;;;-6.05;100.00
56681;BME280;42558;52.388;13.390;2023-03-01T03:58:45;102589.66;;;-6.01;100.00
56681;BME280;42558;52.388;13.390;2023-03-01T04:01:15;102584.23;;;-6.06;100.00
56681;BME280;42558;52.388;13.390;2023-03-01T04:03:45;102580.05;;;-6.08;100.00
56681;BME280;42558;52.388;13.390;2023-03-01T04:06:16;102582.28;;;-6.03;100.00
56681;BME280;42558;52.388;13.390;2023-03-01T04:08:46;102583.71;;;-6.01;100.00
56681;BME280;42558;52.388;13.390;2023-03-01T04:11:16;102582.14;;;-6.01;100.00
56681;BME280;42558;52.388;13.390;2023-03-01T04:13:58;102580.48;;;-6.02;100.00
56681;BME280;42558;52.388;13.390;2023-03-01T04:16:28;102578.98;;;-6.03;100.00
56681;BME280;42558;52.388;13.390;2023-03-01T04:18:59;102581.55;;;-6.12;100.00
56681;BME280;42558;52.388;13.390;2023-03-01T04:21:30;102585.89;;;-6.13;100.00
56681;BME280;42558;52.388;13.390;2023-03-01T04:23:59;102582.61;;;-6.11;100.00
56681;BME280;42558;52.388;13.390;2023-03-01T04:26:29;102581.77;;;-6.14;100.00
56681;BME280;42558;52.388;13.390;2023-03-01T04:28:59;102578.09;;;-6.15;100.00
56681;BME280;42558;52.388;13.390;2023-03-01T04:31:29;102575.34;;;-6.15;100.00
56681;BME280;42558;52.388;13.390;2023-03-01T04:33:59;102573.70;;;-6.19;100.00
56681;BME280;42558;52.388;13.390;2023-03-01T04:36:29;102572.35;;;-6.22;100.00
56681;BME280;42558;52.388;13.390;2023-03-01T04:39:00;102571.02;;;-6.25;100.00
56681;BME280;42558;52.388;13.390;2023-03-01T04:41:41;102574.73;;;-6.29;100.00
56681;BME280;42558;52.388;13.390;2023-03-01T04:44:10;102575.52;;;-6.33;100.00
56681;BME280;42558;52.388;13.390;2023-03-01T04:46:39;102572.96;;;-6.33;100.00
56681;BME280;42558;52.388;13.390;2023-03-01T04:49:07;102572.27;;;-6.33;100.00
56681;BME280;42558;52.388;13.390;2023-03-01T04:51:35;102574.25;;;-6.38;100.00
56681;BME280;42558;52.388;13.390;2023-03-01T04:54:04;102571.38;;;-6.42;100.00
56681;BME280;42558;52.388;13.390;2023-03-01T04:56:32;102570.75;;;-6.42;100.00
56681;BME280;42558;52.388;13.390;2023-03-01T04:59:00;102575.55;;;-6.43;100.00
56681;BME280;42558;52.388;13.390;2023-03-01T05:01:29;102568.73;;;-6.46;100.00
56681;BME280;42558;52.388;13.390;2023-03-01T05:03:57;102566.52;;;-6.44;100.00
56681;BME280;42558;52.388;13.390;2023-03-01T05:06:32;102562.13;;;-6.42;100.00
56681;BME280;42558;52.388;13.390;2023-03-01T05:09:02;102568.48;;;-6.43;100.00
56681;BME280;42558;52.388;13.390;2023-03-01T05:11:32;102571.10;;;-6.48;100.00
56681;BME280;42558;52.388;13.390;2023-03-01T05:14:07;102570.15;;;-6.48;100.00
56681;BME280;42558;52.388;13.390;2023-03-01T05:16:38;102570.98;;;-6.53;100.00
56681;BME280;42558;52.388;13.390;2023-03-01T05:19:08;102572.86;;;-6.55;100.00
56681;BME280;42558;52.388;13.390;2023-03-01T05:21:44;102571.24;;;-6.57;100.00
56681;BME280;42558;52.388;13.390;2023-03-01T05:24:35;102574.52;;;-6.58;100.00
56681;BME280;42558;52.388;13.390;2023-03-01T05:27:04;102569.41;;;-6.64;100.00
56681;BME280;42558;52.388;13.390;2023-03-01T05:29:33;102571.05;;;-6.62;100.00
56681;BME280;42558;52.388;13.390;2023-03-01T05:32:02;102571.64;;;-6.64;100.00
56681;BME280;42558;52.388;13.390;2023-03-01T05:34:34;102568.88;;;-6.62;100.00
56681;BME280;42558;52.388;13.390;2023-03-01T05:37:05;102569.83;;;-6.61;100.00
56681;BME280;42558;52.388;13.390;2023-03-01T05:39:37;102568.05;;;-6.64;100.00
56681;BME280;42558;52.388;13.390;2023-03-01T05:42:11;102568.19;;;-6.66;100.00
56681;BME280;42558;52.388;13.390;2023-03-01T05:44:42;102569.23;;;-6.67;100.00
56681;BME280;42558;52.388;13.390;2023-03-01T05:47:13;102563.33;;;-6.70;100.00
56681;BME280;42558;52.388;13.390;2023-03-01T05:49:42;102563.16;;;-6.71;100.00
56681;BME280;42558;52.388;13.390;2023-03-01T05:52:12;102563.70;;;-6.72;100.00
56681;BME280;42558;52.388;13.390;2023-03-01T05:54:42;102563.20;;;-6.74;100.00
56681;BME280;42558;52.388;13.390;2023-03-01T05:57:12;102563.27;;;-6.73;100.00
56681;BME280;42558;52.388;13.390;2023-03-01T05:59:41;102568.36;;;-6.70;100.00
56681;BME280;42558;52.388;13.390;2023-03-01T06:02:11;102569.45;;;-6.70;100.00
56681;BME280;42558;52.388;13.390;2023-03-01T06:04:41;102567.54;;;-6.69;100.00
56681;BME280;42558;52.388;13.390;2023-03-01T06:07:11;102568.20;;;-6.70;100.00
56681;BME280;42558;52.388;13.390;2023-03-01T06:09:41;102569.19;;;-6.69;100.00
56681;BME280;42558;52.388;13.390;2023-03-01T06:12:12;102565.66;;;-6.64;100.00
56681;BME280;42558;52.388;13.390;2023-03-01T06:14:47;102566.23;;;-6.61;100.00
56681;BME280;42558;52.388;13.390;2023-03-01T06:17:17;102563.93;;;-6.58;100.00
56681;BME280;42558;52.388;13.390;2023-03-01T06:19:47;102558.77;;;-6.59;100.00
56681;BME280;42558;52.388;13.390;2023-03-01T06:22:17;102560.45;;;-6.54;100.00
56681;BME280;42558;52.388;13.390;2023-03-01T06:24:46;102558.60;;;-6.52;100.00
56681;BME280;42558;52.388;13.390;2023-03-01T06:27:16;102562.80;;;-6.51;100.00
56681;BME280;42558;52.388;13.390;2023-03-01T06:29:46;102558.89;;;-6.48;100.00
56681;BME280;42558;52.388;13.390;2023-03-01T06:32:16;102559.98;;;-6.43;100.00
56681;BME280;42558;52.388;13.390;2023-03-01T06:34:46;102559.38;;;-6.35;100.00
56681;BME280;42558;52.388;13.390;2023-03-01T06:37:17;102557.52;;;-6.28;100.00
56681;BME280;42558;52.388;13.390;2023-03-01T06:39:47;102563.88;;;-6.18;100.00
56681;BME280;42558;52.388;13.390;2023-03-01T06:42:16;102565.41;;;-6.12;100.00
56681;BME280;42558;52.388;13.390;2023-03-01T06:44:46;102562.48;;;-6.06;100.00
56681;BME280;42558;52.388;13.390;2023-03-01T06:47:16;102561.69;;;-6.01;100.00
56681;BME280;42558;52.388;13.390;2023-03-01T06:49:46;102562.84;;;-5.95;100.00
56681;BME280;42558;52.388;13.390;2023-03-01T06:52:16;102564.83;;;-5.89;100.00
56681;BME280;42558;52.388;13.390;2023-03-01T06:54:45;102566.30;;;-5.78;100.00
56681;BME280;42558;52.388;13.390;2023-03-01T06:57:16;102563.89;;;-5.67;100.00
56681;BME280;42558;52.388;13.390;2023-03-01T06:59:47;102562.03;;;-5.57;100.00
56681;BME280;42558;52.388;13.390;2023-03-01T07:02:18;102561.29;;;-5.51;100.00
56681;BME280;42558;52.388;13.390;2023-03-01T07:04:52;102563.34;;;-5.40;100.00
56681;BME280;42558;52.388;13.390;2023-03-01T07:07:22;102562.30;;;-5.31;100.00
56681;BME280;42558;52.388;13.390;2023-03-01T07:09:52;102564.41;;;-5.20;100.00
56681;BME280;42558;52.388;13.390;2023-03-01T07:12:23;102564.89;;;-5.04;100.00
56681;BME280;42558;52.388;13.390;2023-03-01T07:14:53;102574.27;;;-4.92;100.00
56681;BME280;42558;52.388;13.390;2023-03-01T07:17:22;102572.23;;;-3.80;100.00
56681;BME280;42558;52.388;13.390;2023-03-01T07:19:52;102561.58;;;-2.04;100.00
56681;BME280;42558;52.388;13.390;2023-03-01T07:22:22;102566.20;;;-1.86;100.00
56681;BME280;42558;52.388;13.390;2023-03-01T07:24:50;102562.33;;;-0.74;100.00
56681;BME280;42558;52.388;13.390;2023-03-01T07:27:19;102562.71;;;0.79;95.70
56681;BME280;42558;52.388;13.390;2023-03-01T07:29:47;102552.66;;;1.72;84.66
56681;BME280;42558;52.388;13.390;2023-03-01T07:32:16;102549.63;;;2.18;77.17
56681;BME280;42558;52.388;13.390;2023-03-01T07:34:44;102549.67;;;2.07;72.94
56681;BME280;42558;52.388;13.390;2023-03-01T07:37:12;102553.97;;;2.09;73.37
56681;BME280;42558;52.388;13.390;2023-03-01T07:39:41;102552.27;;;2.50;73.30
56681;BME280;42558;52.388;13.390;2023-03-01T07:42:11;102550.34;;;3.06;70.87
56681;BME280;42558;52.388;13.390;2023-03-01T07:44:41;102547.45;;;3.44;68.73
56681;BME280;42558;52.388;13.390;2023-03-01T07:47:09;102545.39;;;3.37;66.84
56681;BME280;42558;52.388;13.390;2023-03-01T07:49:38;102547.87;;;3.28;69.43
56681;BME280;42558;52.388;13.390;2023-03-01T07:52:05;102547.84;;;3.37;68.14
56681;BME280;42558;52.388;13.390;2023-03-01T07:54:32;102550.77;;;3.66;69.31
56681;BME280;42558;52.388;13.390;2023-03-01T07:57:00;102552.13;;;3.83;67.71
56681;BME280;42558;52.388;13.390;2023-03-01T07:59:29;102548.98;;;3.85;69.40
56681;BME280;42558;52.388;13.390;2023-03-01T08:01:58;102546.54;;;4.05;68.28
56681;BME280;42558;52.388;13.390;2023-03-01T08:04:26;102543.70;;;4.45;67.96
56681;BME280;42558;52.388;13.390;2023-03-01T08:06:55;102542.38;;;4.29;66.27
56681;BME280;42558;52.388;13.390;2023-03-01T08:09:24;102542.98;;;3.74;67.79
56681;BME280;42558;52.388;13.390;2023-03-01T08:11:51;102538.66;;;4.25;66.93
56681;BME280;42558;52.388;13.390;2023-03-01T08:14:19;102539.56;;;4.49;67.36
56681;BME280;42558;52.388;13.390;2023-03-01T08:16:51;102539.55;;;4.70;65.68
56681;BME280;42558;52.388;13.390;2023-03-01T08:19:21;102532.70;;;4.82;67.05
56681;BME280;42558;52.388;13.390;2023-03-01T08:21:51;102530.60;;;5.11;66.48
56681;BME280;42558;52.388;13.390;2023-03-01T08:24:21;102524.67;;;5.31;63.72
56681;BME280;42558;52.388;13.390;2023-03-01T08:26:51;102518.93;;;5.76;59.53
56681;BME280;42558;52.388;13.390;2023-03-01T08:29:22;102520.33;;;5.39;59.38
56681;BME280;42558;52.388;13.390;2023-03-01T08:31:51;102519.41;;;4.82;60.69
56681;BME280;42558;52.388;13.390;2023-03-01T08:34:21;102527.67;;;4.27;61.43
56681;BME280;42558;52.388;13.390;2023-03-01T08:36:51;102523.10;;;3.10;64.79
56681;BME280;42558;52.388;13.390;2023-03-01T08:39:22;102526.06;;;3.49;66.85
56681;BME280;42558;52.388;13.390;2023-03-01T08:41:52;102520.05;;;5.32;64.39
56681;BME280;42558;52.388;13.390;2023-03-01T08:44:22;102509.16;;;6.42;57.80
56681;BME280;42558;52.388;13.390;2023-03-01T08:46:52;102502.90;;;6.91;55.99
56681;BME280;42558;52.388;13.390;2023-03-01T08:49:24;102505.19;;;7.10;55.57
56681;BME280;42558;52.388;13.390;2023-03-01T08:51:54;102505.90;;;6.59;55.64
56681;BME280;42558;52.388;13.390;2023-03-01T08:54:24;102509.92;;;6.14;60.27
56681;BME280;42558;52.388;13.390;2023-03-01T08:56:54;102506.08;;;7.29;57.54
56681;BME280;42558;52.388;13.390;2023-03-01T08:59:25;102499.89;;;7.41;49.99
56681;BME280;42558;52.388;13.390;2023-03-01T09:01:54;102499.06;;;7.58;48.98
56681;BME280;42558;52.388;13.390;2023-03-01T09:04:24;102498.48;;;6.72;50.92
56681;BME280;42558;52.388;13.390;2023-03-01T09:06:54;102501.94;;;5.77;54.24
56681;BME280;42558;52.388;13.390;2023-03-01T09:09:23;102501.86;;;5.68;54.32
56681;BME280;42558;52.388;13.390;2023-03-01T09:11:53;102501.25;;;4.78;55.02
56681;BME280;42558;52.388;13.390;2023-03-01T09:14:23;102498.25;;;4.96;55.76
56681;BME280;42558;52.388;13.390;2023-03-01T09:16:53;102492.38;;;6.01;55.32
56681;BME280;42558;52.388;13.390;2023-03-01T09:19:23;102487.41;;;7.53;52.83
56681;BME280;42558;52.388;13.390;2023-03-01T09:21:54;102484.02;;;6.62;50.22
56681;BME280;42558;52.388;13.390;2023-03-01T09:24:25;102483.89;;;6.37;55.82
56681;BME280;42558;52.388;13.390;2023-03-01T09:26:55;102480.65;;;6.35;53.02
56681;BME280;42558;52.388;13.390;2023-03-01T09:29:25;102481.39;;;6.94;52.22
56681;BME280;42558;52.388;13.390;2023-03-01T09:31:53;102482.56;;;7.73;50.51
56681;BME280;42558;52.388;13.390;2023-03-01T09:34:22;102476.89;;;7.11;49.06
56681;BME280;42558;52.388;13.390;2023-03-01T09:36:50;102477.83;;;6.73;50.35
56681;BME280;42558;52.388;13.390;2023-03-01T09:39:19;102471.89;;;5.88;52.79
56681;BME280;42558;52.388;13.390;2023-03-01T09:42:03;102474.91;;;6.42;54.53
56681;BME280;42558;52.388;13.390;2023-03-01T09:44:56;102470.16;;;7.61;52.66
56681;BME280;42558;52.388;13.390;2023-03-01T09:47:35;102467.44;;;6.08;50.01
56681;BME280;42558;52.388;13.390;2023-03-01T09:50:17;102467.73;;;5.97;52.19
56681;BME280;42558;52.388;13.390;2023-03-01T09:53:03;102474.13;;;5.57;50.25
56681;BME280;42558;52.388;13.390;2023-03-01T09:56:02;102469.63;;;4.44;52.11
56681;BME280;42558;52.388;13.390;2023-03-01T10:01:38;102474.57;;;5.64;55.34
56681;BME280;42558;52.388;13.390;2023-03-01T10:09:58;102468.11;;;6.76;51.78
56681;BME280;42558;52.388;13.390;2023-03-01T10:12:37;102475.31;;;6.02;53.37
56681;BME280;42558;52.388;13.390;2023-03-01T10:15:19;102464.48;;;6.43;53.35
56681;BME280;42558;52.388;13.390;2023-03-01T10:18:00;102465.46;;;6.97;51.43
56681;BME280;42558;52.388;13.390;2023-03-01T10:23:14;102466.33;;;7.16;48.87
56681;BME280;42558;52.388;13.390;2023-03-01T10:29:07;102466.92;;;6.76;49.37
56681;BME280;42558;52.388;13.390;2023-03-01T10:31:39;102467.44;;;7.17;51.65
56681;BME280;42558;52.388;13.390;2023-03-01T10:34:18;102459.67;;;7.00;51.04
56681;BME280;42558;52.388;13.390;2023-03-01T10:36:51;102465.00;;;7.17;50.69
56681;BME280;42558;52.388;13.390;2023-03-01T10:39:25;102455.63;;;6.65;50.80
56681;BME280;42558;52.388;13.390;2023-03-01T10:42:02;102453.16;;;6.99;51.00
56681;BME280;42558;52.388;13.390;2023-03-01T10:44:48;102449.48;;;7.15;50.92
56681;BME280;42558;52.388;13.390;2023-03-01T10:47:27;102441.84;;;7.82;48.32
56681;BME280;42558;52.388;13.390;2023-03-01T10:50:20;102441.48;;;6.83;48.29
56681;BME280;42558;52.388;13.390;2023-03-01T10:53:02;102443.30;;;6.58;49.45
56681;BME280;42558;52.388;13.390;2023-03-01T10:55:39;102439.28;;;5.83;51.72
56681;BME280;42558;52.388;13.390;2023-03-01T10:58:18;102439.66;;;6.13;50.85
56681;BME280;42558;52.388;13.390;2023-03-01T11:03:38;102433.80;;;7.22;47.98
56681;BME280;42558;52.388;13.390;2023-03-01T11:08:47;102423.67;;;6.87;46.66
56681;BME280;42558;52.388;13.390;2023-03-01T11:11:30;102412.63;;;6.55;48.59
56681;BME280;42558;52.388;13.390;2023-03-01T11:14:16;102407.39;;;7.45;48.58
56681;BME280;42558;52.388;13.390;2023-03-01T11:17:12;102407.48;;;6.92;46.89
56681;BME280;42558;52.388;13.390;2023-03-01T11:19:42;102406.91;;;7.01;47.17
56681;BME280;42558;52.388;13.390;2023-03-01T11:22:32;102406.33;;;7.22;48.23
56681;BME280;42558;52.388;13.390;2023-03-01T11:25:04;102406.02;;;7.10;47.61
56681;BME280;42558;52.388;13.390;2023-03-01T11:27:45;102392.85;;;8.03;46.43
56681;BME280;42558;52.388;13.390;2023-03-01T11:38:50;102381.64;;;6.33;47.44
56681;BME280;42558;52.388;13.390;2023-03-01T11:41:26;102383.13;;;7.20;45.90
56681;BME280;42558;52.388;13.390;2023-03-01T11:44:14;102384.56;;;7.21;43.67
56681;BME280;42558;52.388;13.390;2023-03-01T11:47:05;102386.51;;;7.21;43.72
56681;BME280;42558;52.388;13.390;2023-03-01T12:00:20;102390.30;;;6.14;47.65
56681;BME280;42558;52.388;13.390;2023-03-01T12:09:44;102377.30;;;6.33;45.92
56681;BME280;42558;52.388;13.390;2023-03-01T12:16:04;102371.69;;;6.08;45.40
56681;BME280;42558;52.388;13.390;2023-03-01T12:21:21;102361.79;;;6.06;45.71
56681;BME280;42558;52.388;13.390;2023-03-01T12:44:24;102328.65;;;5.95;43.10
56681;BME280;42558;52.388;13.390;2023-03-01T12:47:30;102323.02;;;6.12;43.12
56681;BME280;42558;52.388;13.390;2023-03-01T12:50:40;102320.82;;;6.45;43.20
56681;BME280;42558;52.388;13.390;2023-03-01T12:53:22;102312.77;;;6.47;40.85
56681;BME280;42558;52.388;13.390;2023-03-01T12:55:59;102316.05;;;6.31;40.95
56681;BME280;42558;52.388;13.390;2023-03-01T13:10:20;102292.73;;;6.68;38.76
56681;BME280;42558;52.388;13.390;2023-03-01T13:15:30;102292.33;;;6.67;40.25
56681;BME280;42558;52.388;13.390;2023-03-01T13:18:11;102296.68;;;6.41;40.68
56681;BME280;42558;52.388;13.390;2023-03-01T13:20:56;102291.37;;;6.65;40.57
56681;BME280;42558;52.388;13.390;2023-03-01T13:23:32;102295.48;;;6.67;40.78
56681;BME280;42558;52.388;13.390;2023-03-01T13:26:12;102290.60;;;6.76;40.57
56681;BME280;42558;52.388;13.390;2023-03-01T13:33:52;102280.80;;;6.73;40.79
56681;BME280;42558;52.388;13.390;2023-03-01T13:39:05;102268.80;;;6.74;40.54
56681;BME280;42558;52.388;13.390;2023-03-01T13:41:57;102267.11;;;6.72;39.38
56681;BME280;42558;52.388;13.390;2023-03-01T13:44:38;102264.02;;;7.10;39.31
56681;BME280;42558;52.388;13.390;2023-03-01T13:50:03;102255.77;;;7.03;39.17
56681;BME280;42558;52.388;13.390;2023-03-01T13:52:54;102249.30;;;7.23;37.98
56681;BME280;42558;52.388;13.390;2023-03-01T13:55:46;102250.87;;;7.30;39.74
56681;BME280;42558;52.388;13.390;2023-03-01T13:58:29;102246.70;;;7.45;37.97
56681;BME280;42558;52.388;13.390;2023-03-01T14:01:04;102242.86;;;7.55;36.79
56681;BME280;42558;52.388;13.390;2023-03-01T14:03:42;102242.98;;;7.47;36.97
56681;BME280;42558;52.388;13.390;2023-03-01T14:06:19;102235.09;;;8.88;35.35
56681;BME280;42558;52.388;13.390;2023-03-01T14:09:03;102225.13;;;9.08;32.87
56681;BME280;42558;52.388;13.390;2023-03-01T14:19:47;102216.27;;;7.55;35.77
56681;BME280;42558;52.388;13.390;2023-03-01T14:22:30;102210.38;;;8.41;35.77
56681;BME280;42558;52.388;13.390;2023-03-01T14:25:29;102205.25;;;9.24;33.84
56681;BME280;42558;52.388;13.390;2023-03-01T14:28:20;102206.42;;;9.73;32.17
56681;BME280;42558;52.388;13.390;2023-03-01T14:30:57;102198.34;;;10.59;31.45
56681;BME280;42558;52.388;13.390;2023-03-01T14:33:36;102198.30;;;10.92;31.24
56681;BME280;42558;52.388;13.390;2023-03-01T14:36:10;102193.20;;;11.71;29.76
56681;BME280;42558;52.388;13.390;2023-03-01T14:38:44;102180.21;;;12.53;27.95
56681;BME280;42558;52.388;13.390;2023-03-01T14:41:22;102180.02;;;12.40;28.23
56681;BME280;42558;52.388;13.390;2023-03-01T14:44:03;102184.17;;;10.12;29.33
56681;BME280;42558;52.388;13.390;2023-03-01T14:46:42;102183.55;;;9.68;31.50
56681;BME280;42558;52.388;13.390;2023-03-01T14:49:24;102184.19;;;10.54;31.05
56681;BME280;42558;52.388;13.390;2023-03-01T14:54:43;102163.77;;;12.53;27.34
56681;BME280;42558;52.388;13.390;2023-03-01T14:57:18;102170.80;;;10.10;30.30
56681;BME280;42558;52.388;13.390;2023-03-01T14:59:55;102176.65;;;9.71;31.74
56681;BME280;42558;52.388;13.390;2023-03-01T15:02:29;102172.50;;;9.73;31.82
56681;BME280;42558;52.388;13.390;2023-03-01T15:05:03;102174.52;;;9.40;31.63
56681;BME280;42558;52.388;13.390;2023-03-01T15:07:41;102176.98;;;8.74;33.78